createdAt,value
2019-05-05T00:01:14.678Z,73.45
2019-05-05T00:04:00.720Z,73.07
2019-05-05T00:06:29.196Z,72.71
2019-05-05T00:08:57.436Z,72.58
2019-05-05T00:11:42.070Z,72.62
2019-05-05T00:14:17.682Z,72.50
2019-05-05T00:16:50.272Z,72.28
2019-05-05T00:19:29.711Z,71.65
2019-05-05T00:21:48.448Z,71.03
2019-05-05T00:24:16.722Z,70.87
2019-05-05T00:26:46.025Z,70.28
2019-05-05T00:29:14.957Z,69.91
2019-05-05T00:31:45.277Z,69.79
2019-05-05T00:34:14.863Z,70.05
2019-05-05T00:36:44.574Z,69.58
2019-05-05T00:39:14.962Z,69.13
2019-05-05T00:41:44.894Z,69.05
2019-05-05T00:44:15.266Z,69.34
2019-05-05T00:46:47.484Z,69.07
2019-05-05T00:49:15.755Z,69.00
2019-05-05T00:51:44.409Z,68.61
2019-05-05T00:54:14.752Z,68.31
2019-05-05T00:56:44.869Z,68.11
2019-05-05T00:59:14.741Z,67.74
2019-05-05T01:01:56.373Z,67.70
2019-05-05T01:04:35.290Z,67.10
2019-05-05T01:07:04.944Z,67.32
2019-05-05T01:09:34.456Z,66.99
2019-05-05T01:12:04.351Z,66.47
2019-05-05T01:14:34.258Z,66.63
2019-05-05T01:17:02.738Z,67.14
2019-05-05T01:19:30.966Z,67.23
2019-05-05T01:21:59.239Z,66.21
2019-05-05T01:24:27.474Z,66.15
2019-05-05T01:26:55.758Z,66.33
2019-05-05T01:29:25.244Z,66.13
2019-05-05T01:31:55.794Z,66.30
2019-05-05T01:34:25.667Z,65.81
2019-05-05T01:36:55.586Z,65.94
2019-05-05T01:39:37.397Z,65.43
2019-05-05T01:42:07.298Z,65.69
2019-05-05T01:44:35.530Z,65.70
2019-05-05T01:47:05.356Z,65.26
2019-05-05T01:49:34.499Z,65.17
2019-05-05T01:52:04.352Z,65.16
2019-05-05T01:54:35.166Z,65.20
2019-05-05T01:57:05.282Z,64.95
2019-05-05T01:59:35.209Z,65.37
2019-05-05T02:02:04.339Z,65.37
2019-05-05T02:04:34.322Z,65.44
2019-05-05T02:07:05.281Z,64.65
2019-05-05T02:09:35.217Z,65.08
2019-05-05T02:12:04.996Z,65.35
2019-05-05T02:14:35.016Z,65.34
2019-05-05T02:17:04.903Z,64.16
2019-05-05T02:19:34.862Z,64.21
2019-05-05T02:22:05.097Z,64.14
2019-05-05T02:24:32.837Z,64.40
2019-05-05T02:27:01.066Z,64.88
2019-05-05T02:29:44.554Z,65.77
2019-05-05T02:32:19.998Z,65.60
2019-05-05T02:34:55.945Z,65.59
2019-05-05T02:37:25.635Z,65.12
2019-05-05T02:40:01.416Z,65.42
2019-05-05T02:42:25.072Z,66.26
2019-05-05T02:44:54.382Z,67.54
2019-05-05T02:47:34.835Z,67.35
2019-05-05T02:50:05.550Z,66.90
2019-05-05T02:52:34.734Z,66.42
2019-05-05T02:55:04.091Z,65.91
2019-05-05T02:57:34.445Z,65.97
2019-05-05T03:00:04.556Z,66.71
2019-05-05T03:02:35.317Z,66.87
2019-05-05T03:05:04.255Z,66.57
2019-05-05T03:07:34.424Z,66.72
2019-05-05T03:10:03.728Z,66.48
2019-05-05T03:12:34.497Z,66.45
2019-05-05T03:15:04.161Z,66.47
2019-05-05T03:17:34.105Z,66.70
2019-05-05T03:20:04.107Z,66.88
2019-05-05T03:22:34.099Z,67.72
2019-05-05T03:25:04.524Z,67.51
2019-05-05T03:27:34.125Z,67.48
2019-05-05T03:30:04.947Z,67.81
2019-05-05T03:32:36.007Z,67.45
2019-05-05T03:35:04.260Z,67.16
2019-05-05T03:37:34.331Z,67.08
2019-05-05T03:40:04.387Z,66.77
2019-05-05T03:42:40.047Z,66.44
2019-05-05T03:45:09.921Z,66.49
2019-05-05T03:47:38.197Z,66.74
2019-05-05T03:50:07.177Z,66.81
2019-05-05T03:52:35.464Z,67.06
2019-05-05T03:55:07.538Z,67.23
2019-05-05T03:57:35.167Z,67.20
2019-05-05T04:00:04.307Z,67.26
2019-05-05T04:02:49.495Z,67.59
2019-05-05T04:05:28.353Z,68.11
2019-05-05T04:07:56.642Z,67.72
2019-05-05T04:10:24.871Z,67.38
2019-05-05T04:12:54.028Z,67.29
2019-05-05T04:15:24.494Z,67.27
2019-05-05T04:18:00.198Z,67.62
2019-05-05T04:20:30.144Z,67.74
2019-05-05T04:22:58.482Z,67.54
2019-05-05T04:25:26.720Z,67.70
2019-05-05T04:27:54.956Z,67.43
2019-05-05T04:30:23.805Z,67.29
2019-05-05T04:32:54.370Z,67.25
2019-05-05T04:35:24.458Z,67.14
2019-05-05T04:37:54.267Z,66.81
2019-05-05T04:40:24.016Z,66.83
2019-05-05T04:42:54.456Z,66.98
2019-05-05T04:45:24.070Z,66.83
2019-05-05T04:48:04.312Z,66.42
2019-05-05T04:50:34.658Z,66.39
2019-05-05T04:53:04.647Z,66.26
2019-05-05T04:55:33.746Z,65.59
2019-05-05T04:58:02.125Z,65.28
2019-05-05T05:00:30.386Z,65.01
2019-05-05T05:03:09.167Z,64.89
2019-05-05T05:05:55.630Z,64.36
2019-05-05T05:08:24.723Z,63.80
2019-05-05T05:10:54.254Z,63.34
2019-05-05T05:13:24.483Z,63.06
2019-05-05T05:15:53.943Z,62.52
2019-05-05T05:18:24.020Z,62.29
2019-05-05T05:20:54.653Z,62.00
2019-05-05T05:23:24.479Z,61.55
2019-05-05T05:25:54.249Z,60.54
2019-05-05T05:28:23.671Z,60.33
2019-05-05T05:30:54.342Z,60.05
2019-05-05T05:33:23.844Z,58.62
2019-05-05T05:35:54.415Z,58.17
2019-05-05T05:38:24.208Z,57.67
2019-05-05T05:40:56.725Z,57.65
2019-05-05T05:43:43.992Z,57.96
2019-05-05T05:46:16.909Z,57.57
2019-05-05T05:49:04.507Z,57.35
2019-05-05T05:51:34.101Z,56.98
2019-05-05T05:54:03.758Z,57.42
2019-05-05T05:56:34.164Z,55.84
2019-05-05T05:59:03.667Z,55.95
2019-05-05T06:01:32.102Z,56.38
2019-05-05T06:04:00.376Z,56.94
2019-05-05T06:06:28.606Z,56.85
2019-05-05T06:08:56.890Z,57.05
2019-05-05T06:11:25.121Z,57.61
2019-05-05T06:13:54.509Z,57.08
2019-05-05T06:16:23.569Z,57.29
2019-05-05T06:18:51.918Z,57.52
2019-05-05T06:21:20.180Z,57.62
2019-05-05T06:23:48.406Z,56.98
2019-05-05T06:26:16.699Z,56.75
2019-05-05T06:28:44.956Z,55.75
2019-05-05T06:31:14.145Z,56.55
2019-05-05T06:33:43.837Z,55.89
2019-05-05T06:36:14.165Z,55.53
2019-05-05T06:38:43.718Z,55.68
2019-05-05T06:41:19.607Z,56.14
2019-05-05T06:43:58.512Z,56.21
2019-05-05T06:46:28.431Z,56.36
2019-05-05T06:48:56.679Z,58.32
2019-05-05T06:51:24.934Z,59.42
2019-05-05T06:53:53.980Z,60.20
2019-05-05T06:56:23.791Z,59.65
2019-05-05T06:58:53.997Z,57.98
2019-05-05T07:01:22.012Z,57.13
2019-05-05T07:03:50.279Z,56.88
2019-05-05T07:06:18.794Z,56.81
2019-05-05T07:08:47.071Z,57.87
2019-05-05T07:11:15.344Z,58.30
2019-05-05T07:13:44.307Z,58.55
2019-05-05T07:16:14.918Z,59.28
2019-05-05T07:18:44.609Z,57.65
2019-05-05T07:21:14.269Z,56.90
2019-05-05T07:23:44.513Z,56.36
2019-05-05T07:26:14.422Z,57.19
2019-05-05T07:28:44.758Z,56.37
2019-05-05T07:31:14.313Z,52.59
2019-05-05T07:33:43.783Z,51.76
2019-05-05T07:36:16.898Z,52.44
2019-05-05T07:38:46.772Z,54.04
2019-05-05T07:41:15.042Z,52.75
2019-05-05T07:43:43.763Z,54.42
2019-05-05T07:46:13.569Z,54.40
2019-05-05T07:48:44.081Z,55.41
2019-05-05T07:51:13.973Z,50.07
2019-05-05T07:53:44.044Z,50.90
2019-05-05T07:56:14.281Z,51.04
2019-05-05T07:58:43.845Z,50.24
2019-05-05T08:01:14.118Z,50.08
2019-05-05T08:03:44.393Z,52.57
2019-05-05T08:06:14.352Z,47.10
2019-05-05T08:08:44.279Z,49.14
2019-05-05T08:11:14.505Z,47.20
2019-05-05T08:13:44.287Z,47.02
2019-05-05T08:16:29.996Z,46.01
2019-05-05T08:19:13.741Z,48.39
2019-05-05T08:21:43.599Z,48.51
2019-05-05T08:24:13.999Z,48.62
2019-05-05T08:26:46.890Z,48.85
2019-05-05T08:29:34.559Z,48.79
2019-05-05T08:32:10.062Z,48.69
2019-05-05T08:34:38.374Z,47.34
2019-05-05T08:37:06.700Z,49.82
2019-05-05T08:39:35.129Z,48.79
2019-05-05T08:42:04.315Z,47.66
2019-05-05T08:44:34.259Z,48.63
2019-05-05T08:47:04.479Z,48.33
2019-05-05T08:49:34.654Z,48.12
2019-05-05T08:52:03.996Z,47.79
2019-05-05T08:54:34.397Z,48.90
2019-05-05T08:57:04.215Z,49.40
2019-05-05T08:59:33.705Z,49.71
2019-05-05T09:02:04.330Z,50.18
2019-05-05T09:04:34.032Z,49.63
2019-05-05T09:07:04.782Z,48.80
2019-05-05T09:09:33.491Z,46.61
2019-05-05T09:12:01.915Z,47.54
2019-05-05T09:14:30.138Z,46.47
2019-05-05T09:16:58.424Z,45.74
2019-05-05T09:19:26.648Z,48.33
2019-05-05T09:21:54.922Z,49.58
2019-05-05T09:24:29.334Z,48.92
2019-05-05T09:27:03.637Z,49.67
2019-05-05T09:29:36.448Z,49.97
2019-05-05T09:32:05.472Z,50.92
2019-05-05T09:34:34.173Z,50.71
2019-05-05T09:37:04.116Z,50.70
2019-05-05T09:39:34.558Z,51.12
2019-05-05T09:42:04.131Z,50.22
2019-05-05T09:44:34.573Z,47.47
2019-05-05T09:47:04.524Z,46.99
2019-05-05T09:49:33.844Z,45.53
2019-05-05T09:52:02.364Z,45.24
2019-05-05T09:54:30.647Z,45.19
2019-05-05T09:56:58.885Z,45.42
2019-05-05T09:59:27.159Z,48.55
2019-05-05T10:01:55.394Z,46.94
2019-05-05T10:04:25.153Z,46.86
2019-05-05T10:06:53.380Z,47.88
2019-05-05T10:09:21.667Z,47.02
2019-05-05T10:11:49.902Z,46.24
2019-05-05T10:14:18.141Z,46.95
2019-05-05T10:16:46.432Z,47.43
2019-05-05T10:19:14.670Z,49.11
2019-05-05T10:21:44.367Z,47.64
2019-05-05T10:24:31.197Z,48.81
2019-05-05T10:26:59.704Z,50.62
2019-05-05T10:29:27.930Z,49.29
2019-05-05T10:31:56.358Z,49.76
2019-05-05T10:34:24.581Z,49.20
2019-05-05T10:36:53.577Z,48.96
2019-05-05T10:39:24.113Z,49.16
2019-05-05T10:41:54.691Z,48.96
2019-05-05T10:44:22.616Z,50.25
2019-05-05T10:46:50.882Z,48.72
2019-05-05T10:49:19.111Z,48.67
2019-05-05T10:51:47.377Z,48.25
2019-05-05T10:54:15.607Z,47.03
2019-05-05T10:56:44.036Z,46.94
2019-05-05T10:59:12.262Z,46.79
2019-05-05T11:01:40.547Z,46.97
2019-05-05T11:04:08.779Z,45.86
2019-05-05T11:06:37.013Z,47.16
2019-05-05T11:09:07.924Z,46.26
2019-05-05T11:11:36.166Z,46.23
2019-05-05T11:14:04.446Z,47.46
2019-05-05T11:16:32.874Z,47.55
2019-05-05T11:19:01.203Z,45.81
2019-05-05T11:21:29.737Z,45.37
2019-05-05T11:23:58.191Z,46.37
2019-05-05T11:26:26.494Z,46.73
2019-05-05T11:28:54.785Z,46.58
2019-05-05T11:31:23.922Z,46.75
2019-05-05T11:33:54.307Z,45.30
2019-05-05T11:36:24.381Z,44.84
2019-05-05T11:38:53.679Z,46.06
2019-05-05T11:41:24.129Z,46.14
2019-05-05T11:43:53.447Z,46.66
2019-05-05T11:46:21.840Z,46.47
2019-05-05T11:48:50.114Z,45.11
2019-05-05T11:51:18.338Z,47.45
2019-05-05T11:53:46.675Z,47.78
2019-05-05T11:56:14.915Z,48.18
2019-05-05T11:58:44.228Z,48.47
2019-05-05T12:01:13.883Z,46.54
2019-05-05T12:03:44.146Z,45.86
2019-05-05T12:06:14.461Z,46.03
2019-05-05T12:08:45.467Z,46.22
2019-05-05T12:11:12.247Z,47.13
2019-05-05T12:13:40.632Z,45.83
2019-05-05T12:16:09.128Z,45.41
2019-05-05T12:18:37.356Z,46.28
2019-05-05T12:21:05.632Z,45.58
2019-05-05T12:23:34.264Z,46.25
2019-05-05T12:26:24.369Z,45.90
2019-05-05T12:28:57.309Z,45.62
2019-05-05T12:31:33.977Z,46.94
2019-05-05T12:34:03.952Z,45.44
2019-05-05T12:36:34.167Z,44.79
2019-05-05T12:39:04.057Z,47.82
2019-05-05T12:41:32.351Z,47.86
2019-05-05T12:44:03.302Z,46.15
2019-05-05T12:46:51.417Z,46.16
2019-05-05T12:49:22.539Z,46.95
2019-05-05T12:51:49.641Z,47.93
2019-05-05T12:54:17.857Z,46.64
2019-05-05T12:56:46.090Z,45.83
2019-05-05T12:59:16.017Z,42.51
2019-05-05T13:01:44.333Z,42.64
2019-05-05T13:04:14.104Z,42.45
2019-05-05T13:06:44.861Z,42.87
2019-05-05T13:09:13.667Z,44.12
2019-05-05T13:11:43.605Z,43.58
2019-05-05T13:14:14.133Z,43.99
2019-05-05T13:16:50.657Z,44.92
2019-05-05T13:19:14.645Z,45.12
2019-05-05T13:22:01.122Z,46.46
2019-05-05T13:24:34.391Z,45.77
2019-05-05T13:27:10.010Z,43.93
2019-05-05T13:29:36.701Z,45.14
2019-05-05T13:32:04.944Z,42.82
2019-05-05T13:34:33.208Z,41.29
2019-05-05T13:37:03.485Z,41.84
2019-05-05T13:39:31.430Z,44.31
2019-05-05T13:41:59.738Z,41.92
2019-05-05T13:44:45.802Z,40.94
2019-05-05T13:47:14.042Z,42.22
2019-05-05T13:49:43.669Z,42.00
2019-05-05T13:52:13.903Z,43.94
2019-05-05T13:54:43.864Z,44.63
2019-05-05T13:57:14.242Z,41.40
2019-05-05T13:59:44.330Z,41.43
2019-05-05T14:02:13.768Z,40.74
2019-05-05T14:04:43.800Z,41.28
2019-05-05T14:07:12.243Z,41.90
2019-05-05T14:09:40.463Z,41.86
2019-05-05T14:12:08.752Z,42.73
2019-05-05T14:14:36.975Z,42.60
2019-05-05T14:17:05.245Z,43.67
2019-05-05T14:19:34.056Z,44.23
2019-05-05T14:22:04.384Z,43.44
2019-05-05T14:24:34.377Z,43.21
2019-05-05T14:27:04.498Z,42.02
2019-05-05T14:29:40.009Z,43.26
2019-05-05T14:32:09.741Z,42.90
2019-05-05T14:34:39.626Z,41.30
2019-05-05T14:37:11.151Z,42.88
2019-05-05T14:39:39.522Z,42.40
2019-05-05T14:42:07.942Z,43.48
2019-05-05T14:44:36.410Z,42.47
2019-05-05T14:47:04.834Z,41.88
2019-05-05T14:49:33.929Z,42.03
2019-05-05T14:52:04.318Z,42.28
2019-05-05T14:54:34.158Z,42.58
2019-05-05T14:57:04.568Z,43.51
2019-05-05T14:59:34.064Z,42.67
2019-05-05T15:02:04.142Z,41.29
2019-05-05T15:04:34.578Z,43.36
2019-05-05T15:07:07.086Z,41.86
2019-05-05T15:09:37.010Z,42.51
2019-05-05T15:12:14.361Z,43.16
2019-05-05T15:14:43.953Z,42.62
2019-05-05T15:17:14.186Z,44.51
2019-05-05T15:19:43.593Z,43.42
2019-05-05T15:22:14.843Z,44.44
2019-05-05T15:24:44.013Z,42.69
2019-05-05T15:27:12.311Z,43.75
2019-05-05T15:29:40.536Z,44.29
2019-05-05T15:32:08.825Z,44.18
2019-05-05T15:34:37.097Z,45.17
2019-05-05T15:37:05.513Z,46.12
2019-05-05T15:39:33.757Z,46.76
2019-05-05T15:42:02.030Z,46.54
2019-05-05T15:44:30.417Z,46.42
2019-05-05T15:46:58.693Z,46.47
2019-05-05T15:49:27.047Z,46.46
2019-05-05T15:51:55.323Z,46.75
2019-05-05T15:54:23.788Z,47.33
2019-05-05T15:57:03.090Z,48.21
2019-05-05T15:59:23.892Z,48.84
2019-05-05T16:01:54.717Z,48.86
2019-05-05T16:04:23.618Z,49.17
2019-05-05T16:06:54.047Z,49.76
2019-05-05T16:09:22.658Z,49.47
2019-05-05T16:11:50.905Z,49.48
2019-05-05T16:14:19.628Z,49.68
2019-05-05T16:16:49.578Z,51.02
2019-05-05T16:19:27.855Z,52.08
2019-05-05T16:21:59.272Z,52.77
2019-05-05T16:24:33.617Z,54.52
2019-05-05T16:27:05.394Z,55.26
2019-05-05T16:29:33.655Z,55.95
2019-05-05T16:32:04.179Z,56.75
2019-05-05T16:34:33.713Z,56.53
2019-05-05T16:37:03.850Z,56.61
2019-05-05T16:39:33.537Z,56.80
2019-05-05T16:42:02.121Z,56.89
2019-05-05T16:44:30.347Z,57.48
2019-05-05T16:46:58.628Z,57.75
2019-05-05T16:49:26.953Z,57.84
2019-05-05T16:52:00.907Z,57.25
2019-05-05T16:54:30.867Z,57.41
2019-05-05T16:56:59.159Z,55.32
2019-05-05T16:59:27.388Z,54.24
2019-05-05T17:01:55.951Z,53.07
2019-05-05T17:04:24.477Z,53.00
2019-05-05T17:06:54.626Z,54.18
2019-05-05T17:09:24.089Z,53.41
2019-05-05T17:12:10.568Z,53.86
2019-05-05T17:14:44.485Z,54.27
2019-05-05T17:17:20.086Z,53.14
2019-05-05T17:19:49.965Z,53.77
2019-05-05T17:22:22.375Z,53.25
2019-05-05T17:24:50.634Z,54.48
2019-05-05T17:27:18.943Z,55.21
2019-05-05T17:29:47.407Z,55.87
2019-05-05T17:32:15.709Z,55.55
2019-05-05T17:34:44.924Z,55.67
2019-05-05T17:37:13.548Z,55.94
2019-05-05T17:39:43.762Z,56.23
2019-05-05T17:42:28.830Z,56.43
2019-05-05T17:45:03.584Z,57.03
2019-05-05T17:47:34.304Z,57.07
2019-05-05T17:50:04.914Z,57.28
2019-05-05T17:52:44.111Z,57.77
2019-05-05T17:55:28.981Z,57.83
2019-05-05T17:58:01.666Z,57.96
2019-05-05T18:00:29.622Z,57.82
2019-05-05T18:02:57.901Z,58.03
2019-05-05T18:05:44.748Z,58.48
2019-05-05T18:08:31.108Z,58.90
2019-05-05T18:11:00.994Z,59.16
2019-05-05T18:13:36.952Z,59.31
2019-05-05T18:16:05.759Z,59.77
2019-05-05T18:18:33.995Z,59.36
2019-05-05T18:21:02.267Z,59.12
2019-05-05T18:23:30.510Z,59.24
2019-05-05T18:25:58.801Z,59.18
2019-05-05T18:28:27.049Z,59.07
2019-05-05T18:30:55.327Z,59.54
2019-05-05T18:33:24.653Z,59.82
2019-05-05T18:35:54.083Z,59.86
2019-05-05T18:38:23.595Z,60.02
2019-05-05T18:40:53.277Z,59.91
2019-05-05T18:43:24.250Z,59.92
2019-05-05T18:46:04.575Z,60.07
2019-05-05T18:48:34.503Z,60.65
2019-05-05T18:51:03.902Z,60.91
2019-05-05T18:53:34.147Z,61.00
2019-05-05T18:56:03.754Z,61.08
2019-05-05T18:58:34.157Z,61.38
2019-05-05T19:01:24.151Z,60.79
2019-05-05T19:04:04.269Z,60.72
2019-05-05T19:06:37.194Z,60.40
2019-05-05T19:09:08.750Z,60.77
2019-05-05T19:11:36.996Z,61.18
2019-05-05T19:14:05.368Z,61.16
2019-05-05T19:16:34.598Z,61.06
2019-05-05T19:19:03.621Z,60.84
2019-05-05T19:21:34.039Z,61.22
2019-05-05T19:24:03.936Z,61.51
2019-05-05T19:26:33.750Z,61.63
2019-05-05T19:29:04.996Z,62.24
2019-05-05T19:31:36.288Z,62.02
2019-05-05T19:34:04.065Z,62.14
2019-05-05T19:36:34.252Z,62.31
2019-05-05T19:39:04.123Z,62.47
2019-05-05T19:41:34.618Z,62.53
2019-05-05T19:44:04.710Z,62.75
2019-05-05T19:46:51.169Z,62.82
2019-05-05T19:49:24.090Z,62.68
2019-05-05T19:51:54.110Z,62.62
2019-05-05T19:54:22.275Z,62.76
2019-05-05T19:56:50.573Z,62.41
2019-05-05T19:59:18.803Z,62.26
2019-05-05T20:01:47.251Z,62.03
2019-05-05T20:04:15.492Z,61.46
2019-05-05T20:06:44.335Z,61.53
2019-05-05T20:09:14.192Z,61.01
2019-05-05T20:11:43.822Z,60.44
2019-05-05T20:14:14.876Z,60.72
2019-05-05T20:17:04.301Z,60.46
2019-05-05T20:19:34.249Z,60.63
2019-05-05T20:22:02.707Z,60.68
2019-05-05T20:24:30.927Z,61.04
2019-05-05T20:26:59.369Z,61.09
2019-05-05T20:29:27.739Z,61.75
2019-05-05T20:31:56.718Z,61.62
2019-05-05T20:34:43.115Z,61.06
2019-05-05T20:37:15.945Z,60.31
2019-05-05T20:39:44.276Z,60.25
2019-05-05T20:42:14.695Z,60.17
2019-05-05T20:44:43.744Z,60.22
2019-05-05T20:47:12.513Z,60.12
2019-05-05T20:49:40.792Z,60.13
2019-05-05T20:52:09.038Z,60.81
2019-05-05T20:54:37.308Z,60.62
2019-05-05T20:57:05.544Z,59.84
2019-05-05T20:59:34.357Z,59.97
2019-05-05T21:02:04.427Z,60.35
2019-05-05T21:04:34.565Z,61.02
2019-05-05T21:07:04.469Z,61.35
2019-05-05T21:09:34.449Z,61.42
2019-05-05T21:12:04.761Z,61.54
2019-05-05T21:14:37.265Z,61.50
2019-05-05T21:17:04.019Z,61.98
2019-05-05T21:19:34.626Z,62.08
2019-05-05T21:22:20.842Z,62.12
2019-05-05T21:24:49.130Z,62.52
2019-05-05T21:27:17.356Z,62.30
2019-05-05T21:29:45.630Z,62.59
2019-05-05T21:32:13.951Z,62.89
2019-05-05T21:34:44.362Z,63.83
2019-05-05T21:37:14.150Z,63.76
2019-05-05T21:39:42.317Z,64.29
2019-05-05T21:42:10.555Z,64.17
2019-05-05T21:44:39.039Z,64.19
2019-05-05T21:47:07.263Z,63.82
2019-05-05T21:49:35.505Z,63.98
2019-05-05T21:52:08.454Z,63.91
2019-05-05T21:54:44.132Z,63.81
2019-05-05T21:57:30.059Z,63.93
2019-05-05T21:59:59.071Z,63.66
2019-05-05T22:02:27.401Z,63.57
2019-05-05T22:04:55.831Z,63.48
2019-05-05T22:07:24.249Z,62.88
2019-05-05T22:09:54.016Z,62.99
2019-05-05T22:12:24.324Z,63.35
2019-05-05T22:14:54.782Z,63.40
2019-05-05T22:17:22.439Z,63.34
2019-05-05T22:19:54.176Z,63.58
2019-05-05T22:22:23.967Z,63.30
2019-05-05T22:24:54.102Z,63.36
2019-05-05T22:27:23.775Z,64.23
2019-05-05T22:29:53.986Z,64.00
2019-05-05T22:32:22.199Z,63.98
2019-05-05T22:34:50.432Z,63.95
2019-05-05T22:37:18.717Z,63.70
2019-05-05T22:39:46.961Z,63.73
2019-05-05T22:42:15.807Z,63.64
2019-05-05T22:44:44.356Z,63.80
2019-05-05T22:47:13.902Z,63.60
2019-05-05T22:49:44.337Z,63.86
2019-05-05T22:52:14.313Z,63.46
2019-05-05T22:54:44.281Z,63.30
2019-05-05T22:57:14.057Z,63.52
2019-05-05T22:59:42.305Z,63.51
2019-05-05T23:02:10.526Z,63.48
2019-05-05T23:04:43.877Z,63.47
2019-05-05T23:07:16.394Z,63.55
2019-05-05T23:09:44.678Z,63.28
2019-05-05T23:12:13.654Z,63.47
2019-05-05T23:14:43.693Z,63.77
2019-05-05T23:17:26.179Z,64.10
2019-05-05T23:20:13.872Z,64.25
2019-05-05T23:23:04.752Z,64.43
2019-05-05T23:25:37.775Z,64.58
2019-05-05T23:28:06.003Z,64.94
2019-05-05T23:30:41.414Z,65.11
2019-05-05T23:33:04.215Z,65.10
2019-05-05T23:35:34.316Z,65.52
2019-05-05T23:38:03.543Z,65.65
2019-05-05T23:40:33.856Z,65.85
2019-05-05T23:43:01.982Z,66.22
2019-05-05T23:45:30.209Z,65.97
2019-05-05T23:47:58.495Z,65.62
2019-05-05T23:50:26.725Z,65.17
2019-05-05T23:52:55.002Z,65.28
2019-05-05T23:55:24.135Z,65.89
2019-05-05T23:57:54.776Z,66.09
